Time;durP1;ratioP1;P1;durP2;ratioP2;P2;SDS_P1;SDS_P2;PMS_P1;PMS_P2;Temp;Humidity;BMP_temperature;BMP_pressure;BME280_temperature;BME280_humidity;BME280_pressure;Samples;Min_cycle;Max_cycle;Signal;HPM_P1;HPM_P2
2021/05/07 00:01:01;;;;;;;4.30;1.95;;;15.70;57.50;;;;;;5033060;28;20629;-66
2021/05/07 00:03:27;;;;;;;3.67;2.10;;;15.70;57.50;;;;;;5032585;28;20112;-67
2021/05/07 00:05:55;;;;;;;3.60;1.98;;;15.70;57.60;;;;;;5015025;28;20036;-66
2021/05/07 00:08:32;;;;;;;3.35;2.00;;;15.70;57.50;;;;;;5015749;28;20018;-67
2021/05/07 00:10:59;;;;;;;3.13;1.95;;;15.60;57.50;;;;;;5031996;28;20034;-67
2021/05/07 00:13:25;;;;;;;4.10;2.03;;;15.60;57.70;;;;;;5032655;28;20506;-67
2021/05/07 00:15:51;;;;;;;4.55;2.05;;;15.60;57.70;;;;;;5015585;28;20083;-67
2021/05/07 00:18:16;;;;;;;6.20;2.13;;;15.60;57.60;;;;;;5031853;28;20400;-67
2021/05/07 00:20:42;;;;;;;3.92;2.00;;;15.60;57.70;;;;;;5031591;28;20048;-67
2021/05/07 00:23:08;;;;;;;4.32;2.42;;;15.60;57.70;;;;;;5013198;28;20052;-67
2021/05/07 00:25:33;;;;;;;4.10;2.10;;;15.60;57.70;;;;;;5030851;28;20503;-66
2021/05/07 00:28:06;;;;;;;5.32;2.00;;;15.60;57.80;;;;;;5030635;28;20044;-67
2021/05/07 00:30:32;;;;;;;3.25;2.10;;;15.60;57.90;;;;;;5031776;28;20503;-67
2021/05/07 00:32:58;;;;;;;3.55;2.10;;;15.60;57.90;;;;;;5014536;28;20034;-67
2021/05/07 00:35:23;;;;;;;3.42;2.10;;;15.50;57.90;;;;;;5031830;28;20128;-66
2021/05/07 00:37:50;;;;;;;3.80;2.10;;;15.50;57.90;;;;;;5014249;28;20120;-67
2021/05/07 00:40:16;;;;;;;4.03;2.20;;;15.50;58.00;;;;;;5013645;28;20040;-67
2021/05/07 00:42:41;;;;;;;3.90;2.28;;;15.50;58.10;;;;;;5014436;28;20029;-66
2021/05/07 00:45:09;;;;;;;4.70;2.17;;;15.50;58.10;;;;;;5031485;28;20113;-67
2021/05/07 00:47:43;;;;;;;4.50;2.30;;;15.50;58.10;;;;;;5013302;28;20025;-67
2021/05/07 00:50:10;;;;;;;4.03;2.20;;;15.40;58.10;;;;;;5031762;28;20028;-67
2021/05/07 00:52:37;;;;;;;4.18;2.00;;;15.40;58.10;;;;;;5013933;28;20013;-67
2021/05/07 00:55:07;;;;;;;4.60;2.22;;;15.40;58.10;;;;;;5013783;28;20068;-67
2021/05/07 00:57:33;;;;;;;3.60;1.98;;;15.40;58.10;;;;;;5031560;28;20031;-67
2021/05/07 00:59:59;;;;;;;4.88;2.03;;;15.40;58.20;;;;;;5031803;28;20025;-67
2021/05/07 01:02:25;;;;;;;3.53;2.13;;;15.40;58.20;;;;;;5031861;28;20037;-67
2021/05/07 01:04:51;;;;;;;3.78;2.47;;;15.40;58.30;;;;;;5031213;28;20033;-67
2021/05/07 01:07:17;;;;;;;3.22;2.00;;;15.40;58.20;;;;;;5013298;28;20033;-67
2021/05/07 01:09:43;;;;;;;4.40;2.10;;;15.40;58.30;;;;;;5031114;28;20040;-67
2021/05/07 01:12:09;;;;;;;3.78;2.10;;;15.30;58.20;;;;;;5031747;28;20436;-67
2021/05/07 01:14:36;;;;;;;4.95;2.30;;;15.30;58.30;;;;;;5031193;28;20034;-67
2021/05/07 01:17:02;;;;;;;4.25;2.15;;;15.30;58.40;;;;;;5030884;28;20036;-67
2021/05/07 01:19:27;;;;;;;3.08;1.70;;;15.30;58.30;;;;;;5030827;28;20028;-67
2021/05/07 01:21:54;;;;;;;3.22;1.83;;;15.30;58.40;;;;;;5031294;28;20109;-67
2021/05/07 01:24:21;;;;;;;4.03;2.17;;;15.30;58.40;;;;;;5030034;28;20484;-67
2021/05/07 01:26:47;;;;;;;4.43;2.08;;;15.30;58.40;;;;;;5012262;28;20033;-66
2021/05/07 01:29:13;;;;;;;3.65;2.10;;;15.30;58.40;;;;;;5030894;28;20405;-66
2021/05/07 01:31:43;;;;;;;3.17;1.85;;;15.30;58.40;;;;;;5021502;28;20026;-66
2021/05/07 01:34:09;;;;;;;5.07;2.08;;;15.30;58.40;;;;;;5030968;28;20053;-66
2021/05/07 01:36:35;;;;;;;3.67;2.03;;;15.30;58.40;;;;;;5031427;28;20022;-67
2021/05/07 01:39:01;;;;;;;4.57;1.90;;;15.30;58.40;;;;;;5030677;28;20480;-67
2021/05/07 01:41:27;;;;;;;3.83;2.28;;;15.20;58.40;;;;;;5030363;28;20472;-67
2021/05/07 01:43:52;;;;;;;5.03;1.95;;;15.20;58.40;;;;;;5030780;28;20034;-67
2021/05/07 01:46:18;;;;;;;4.10;2.03;;;15.20;58.50;;;;;;5013341;28;20398;-67
2021/05/07 01:48:43;;;;;;;3.00;1.70;;;15.20;58.50;;;;;;5030980;28;20507;-67
2021/05/07 01:51:09;;;;;;;3.45;1.85;;;15.20;58.50;;;;;;5013098;28;20032;-67
2021/05/07 01:53:35;;;;;;;4.93;1.98;;;15.20;58.50;;;;;;5031318;28;20025;-67
2021/05/07 01:56:01;;;;;;;3.38;1.88;;;15.20;58.60;;;;;;5030242;28;20029;-67
2021/05/07 01:58:26;;;;;;;2.90;1.70;;;15.20;58.60;;;;;;5030940;28;20079;-66
2021/05/07 02:00:52;;;;;;;4.28;1.83;;;15.20;58.50;;;;;;5031153;28;20054;-66
2021/05/07 02:03:18;;;;;;;4.53;2.05;;;15.20;58.60;;;;;;5013601;28;20124;-67
2021/05/07 02:05:44;;;;;;;3.25;1.88;;;15.20;58.50;;;;;;5030441;28;20037;-67
2021/05/07 02:08:11;;;;;;;4.28;1.90;;;15.10;58.60;;;;;;5013184;28;20057;-66
2021/05/07 02:10:37;;;;;;;3.35;1.88;;;15.10;58.60;;;;;;5052899;22;20011;-62
2021/05/07 02:13:10;;;;;;;9.88;2.20;;;15.10;58.60;;;;;;5070956;28;20036;-62
2021/05/07 02:15:36;;;;;;;6.05;2.00;;;15.10;58.60;;;;;;5054045;28;20032;-62
2021/05/07 02:18:03;;;;;;;3.38;2.05;;;15.10;58.70;;;;;;5038935;28;20044;-62
2021/05/07 02:20:29;;;;;;;3.65;1.77;;;15.10;58.60;;;;;;5034041;28;20029;-63
2021/05/07 02:22:56;;;;;;;4.30;1.90;;;15.10;58.60;;;;;;5057735;28;20029;-63
2021/05/07 02:25:24;;;;;;;5.40;1.88;;;15.10;59.10;;;;;;5069952;28;20024;-62
2021/05/07 02:27:51;;;;;;;2.97;1.70;;;15.10;58.60;;;;;;5070291;28;20025;-62
2021/05/07 02:30:19;;;;;;;4.25;1.90;;;15.00;58.50;;;;;;5070727;28;20029;-62
2021/05/07 02:32:45;;;;;;;3.90;1.83;;;15.10;58.60;;;;;;5070475;28;20036;-62
2021/05/07 02:35:11;;;;;;;4.45;2.13;;;15.10;58.50;;;;;;5070123;28;20492;-62
2021/05/07 02:37:37;;;;;;;4.72;2.03;;;15.00;58.60;;;;;;5070582;28;20421;-62
2021/05/07 02:40:04;;;;;;;4.95;2.08;;;15.00;58.60;;;;;;5069901;28;20025;-62
2021/05/07 02:42:30;;;;;;;4.28;2.05;;;15.00;58.60;;;;;;5070720;28;20035;-64
2021/05/07 02:44:56;;;;;;;2.83;1.73;;;15.00;58.70;;;;;;5053740;28;20028;-63
2021/05/07 02:47:22;;;;;;;5.35;1.92;;;15.00;58.70;;;;;;5073928;28;20028;-62
2021/05/07 02:49:48;;;;;;;4.03;1.92;;;15.00;58.70;;;;;;5073923;28;20063;-62
2021/05/07 02:52:13;;;;;;;4.13;1.95;;;15.00;58.60;;;;;;5056102;28;20025;-62
2021/05/07 02:54:39;;;;;;;3.80;1.90;;;15.00;58.60;;;;;;5073545;28;20086;-62
2021/05/07 02:57:05;;;;;;;4.28;1.98;;;15.00;58.70;;;;;;5056340;28;20021;-62
2021/05/07 02:59:30;;;;;;;3.53;1.98;;;15.00;58.80;;;;;;5073762;28;20066;-63
2021/05/07 03:01:56;;;;;;;4.18;1.75;;;15.00;58.70;;;;;;5073915;28;20483;-62
2021/05/07 03:04:21;;;;;;;6.07;2.10;;;15.00;58.70;;;;;;5073135;28;20029;-63
2021/05/07 03:06:48;;;;;;;4.50;2.00;;;15.00;58.70;;;;;;5055911;28;20035;-62
2021/05/07 03:09:14;;;;;;;3.50;1.90;;;14.90;58.60;;;;;;5073740;28;20096;-64
2021/05/07 03:11:40;;;;;;;3.95;2.05;;;14.90;58.70;;;;;;5073700;28;20036;-63
2021/05/07 03:14:06;;;;;;;3.17;1.80;;;14.90;58.60;;;;;;5055055;28;20091;-62
2021/05/07 03:16:32;;;;;;;3.10;1.80;;;15.00;58.60;;;;;;5055972;28;20498;-62
2021/05/07 03:18:58;;;;;;;3.15;1.80;;;14.90;58.70;;;;;;5072952;28;20048;-62
2021/05/07 03:21:24;;;;;;;3.40;1.70;;;15.00;58.60;;;;;;5073502;28;20047;-62
2021/05/07 03:23:49;;;;;;;3.42;2.00;;;14.90;58.60;;;;;;5073297;28;20017;-62
2021/05/07 03:26:15;;;;;;;4.13;1.90;;;14.90;58.70;;;;;;5055490;28;20020;-62
2021/05/07 03:28:40;;;;;;;2.95;1.75;;;14.90;58.60;;;;;;5073605;28;20020;-62
2021/05/07 03:31:07;;;;;;;3.50;1.90;;;14.90;58.50;;;;;;5073365;28;20035;-63
2021/05/07 03:33:33;;;;;;;3.50;2.00;;;14.90;58.60;;;;;;5073250;28;20483;-62
2021/05/07 03:35:59;;;;;;;3.03;1.80;;;14.90;58.60;;;;;;5072709;28;20025;-62
2021/05/07 03:38:24;;;;;;;2.40;1.80;;;14.90;58.70;;;;;;5054922;28;20036;-62
2021/05/07 03:40:50;;;;;;;3.50;1.90;;;14.90;58.60;;;;;;5072836;28;20369;-63
2021/05/07 03:43:16;;;;;;;2.90;1.88;;;14.90;58.70;;;;;;5073315;28;20033;-62
2021/05/07 03:45:41;;;;;;;3.20;2.03;;;14.90;58.70;;;;;;5072562;28;20063;-62
2021/05/07 03:48:18;;;;;;;4.18;1.95;;;14.90;58.70;;;;;;5073052;28;20056;-62
2021/05/07 03:50:44;;;;;;;3.72;1.92;;;14.90;58.80;;;;;;5053005;28;20029;-62
2021/05/07 03:53:14;;;;;;;3.05;1.85;;;14.80;58.90;;;;;;5066208;28;20036;-62
2021/05/07 03:55:39;;;;;;;3.70;1.95;;;14.90;59.00;;;;;;5072597;28;20361;-62
2021/05/07 03:58:05;;;;;;;4.80;2.33;;;14.80;58.80;;;;;;5054720;28;20116;-62
2021/05/07 04:00:31;;;;;;;3.92;2.00;;;14.80;58.80;;;;;;5072469;28;20032;-61
2021/05/07 04:02:57;;;;;;;3.75;1.92;;;14.80;59.40;;;;;;5054987;28;20115;-61
2021/05/07 04:05:22;;;;;;;4.10;1.70;;;14.80;58.80;;;;;;5071468;28;20402;-62
2021/05/07 04:07:56;;;;;;;4.07;1.90;;;14.80;58.90;;;;;;5054694;28;20050;-62
2021/05/07 04:10:22;;;;;;;4.03;1.92;;;14.80;59.00;;;;;;5054035;28;20115;-63
2021/05/07 04:15:14;;;;;;;3.53;1.90;;;14.80;59.00;;;;;;5072270;28;20028;-62
2021/05/07 04:17:41;;;;;;;3.42;1.83;;;14.80;59.00;;;;;;5071853;28;20028;-62
2021/05/07 04:20:07;;;;;;;3.75;1.90;;;14.80;59.10;;;;;;5070800;28;20097;-61
2021/05/07 04:22:33;;;;;;;3.38;2.00;;;14.80;59.00;;;;;;5072136;28;20036;-63
2021/05/07 04:24:59;;;;;;;3.58;1.95;;;14.80;59.10;;;;;;5053558;28;20119;-62
2021/05/07 04:27:24;;;;;;;3.70;2.03;;;14.80;59.00;;;;;;5072389;28;20027;-62
2021/05/07 04:29:51;;;;;;;3.38;1.90;;;14.80;59.00;;;;;;5072222;28;20074;-63
2021/05/07 04:32:17;;;;;;;4.03;2.05;;;14.80;59.00;;;;;;5071607;28;20472;-62
2021/05/07 04:34:42;;;;;;;4.45;2.10;;;14.80;59.00;;;;;;5071790;28;20038;-62
2021/05/07 04:37:08;;;;;;;4.32;2.40;;;14.80;58.90;;;;;;5071991;28;20036;-63
2021/05/07 04:39:33;;;;;;;5.60;2.00;;;14.80;58.90;;;;;;5065889;28;20036;-63
2021/05/07 04:41:59;;;;;;;5.13;2.28;;;14.80;59.00;;;;;;5042669;28;20077;-63
2021/05/07 04:44:24;;;;;;;3.40;2.00;;;14.80;58.70;;;;;;5064522;28;20063;-64
2021/05/07 04:46:50;;;;;;;5.93;2.40;;;14.90;58.70;;;;;;5065664;28;20028;-65
2021/05/07 04:49:16;;;;;;;6.20;2.35;;;14.80;58.60;;;;;;5064092;28;20448;-64
2021/05/07 04:51:41;;;;;;;5.70;2.30;;;14.90;58.90;;;;;;5063913;28;20028;-63
2021/05/07 04:54:07;;;;;;;9.35;2.63;;;14.90;58.90;;;;;;5064000;28;20106;-64
2021/05/07 04:56:32;;;;;;;8.15;2.88;;;14.90;58.90;;;;;;5064594;28;20067;-63
2021/05/07 04:58:58;;;;;;;4.93;2.42;;;15.00;59.10;;;;;;5065238;28;20051;-62
2021/05/07 05:01:24;;;;;;;7.20;2.95;;;15.00;59.10;;;;;;5058328;28;20029;-63
2021/05/07 05:03:49;;;;;;;11.07;2.80;;;15.00;59.20;;;;;;5065020;28;20479;-62
2021/05/07 05:06:16;;;;;;;8.38;2.58;;;15.00;60.30;;;;;;5065188;28;20028;-62
2021/05/07 05:08:41;;;;;;;10.82;2.75;;;15.10;60.50;;;;;;5060053;28;20514;-63
2021/05/07 05:11:07;;;;;;;12.48;3.20;;;15.10;60.10;;;;;;5046760;28;20072;-63
2021/05/07 05:13:33;;;;;;;6.90;2.47;;;15.10;60.00;;;;;;5065276;28;20033;-64
2021/05/07 05:15:59;;;;;;;7.82;2.47;;;15.10;60.00;;;;;;5065121;28;20029;-62
2021/05/07 05:18:33;;;;;;;7.65;2.40;;;15.20;59.80;;;;;;5045374;28;20067;-66
2021/05/07 05:21:01;;;;;;;5.13;2.42;;;15.20;59.50;;;;;;5061237;28;20110;-63
2021/05/07 05:23:27;;;;;;;7.95;2.50;;;15.20;59.60;;;;;;5046082;28;20086;-61
2021/05/07 05:25:53;;;;;;;8.73;2.35;;;15.30;59.80;;;;;;5053439;28;20551;-63
2021/05/07 05:28:19;;;;;;;6.45;2.08;;;15.30;59.60;;;;;;5046154;28;20144;-62
2021/05/07 05:30:45;;;;;;;7.38;2.17;;;15.40;59.20;;;;;;5059164;28;20028;-63
2021/05/07 05:33:11;;;;;;;5.32;2.03;;;15.40;58.90;;;;;;5065231;28;20028;-62
2021/05/07 05:35:37;;;;;;;5.50;2.08;;;15.50;58.70;;;;;;5064630;28;20032;-62
2021/05/07 05:38:03;;;;;;;5.95;2.08;;;15.60;58.50;;;;;;5065048;28;20035;-62
2021/05/07 05:40:29;;;;;;;4.68;1.80;;;15.60;58.30;;;;;;5046810;28;20552;-63
2021/05/07 05:42:55;;;;;;;16.77;3.08;;;15.70;58.40;;;;;;5046855;28;20040;-63
2021/05/07 05:45:22;;;;;;;5.88;1.88;;;15.70;59.70;;;;;;5064588;28;20108;-62
2021/05/07 05:47:48;;;;;;;7.10;2.08;;;15.70;58.50;;;;;;5064767;28;20035;-63
2021/05/07 05:50:14;;;;;;;5.20;2.00;;;15.70;58.40;;;;;;5065277;28;20791;-63
2021/05/07 05:52:39;;;;;;;5.55;2.20;;;15.70;58.80;;;;;;5065002;28;20029;-62
2021/05/07 05:55:06;;;;;;;3.20;1.70;;;15.70;58.70;;;;;;5046238;28;20036;-65
2021/05/07 05:57:33;;;;;;;5.60;2.03;;;15.70;58.50;;;;;;5048005;28;20025;-63
2021/05/07 05:59:59;;;;;;;5.85;2.10;;;15.90;58.20;;;;;;5026910;28;20052;-62
2021/05/07 06:02:24;;;;;;;4.25;1.75;;;16.00;57.80;;;;;;5044853;28;20832;-62
2021/05/07 06:04:50;;;;;;;7.40;2.20;;;16.00;57.50;;;;;;5047246;28;20032;-64
2021/05/07 06:07:15;;;;;;;5.63;2.13;;;15.90;57.60;;;;;;5042136;28;20021;-63
2021/05/07 06:09:41;;;;;;;3.83;1.90;;;16.00;57.70;;;;;;5056181;28;20035;-63
2021/05/07 06:12:07;;;;;;;5.68;1.85;;;16.00;57.50;;;;;;5027722;28;20443;-63
2021/05/07 06:14:33;;;;;;;4.20;2.10;;;16.00;57.40;;;;;;5031388;28;20055;-62
2021/05/07 06:16:59;;;;;;;6.50;2.08;;;15.90;57.60;;;;;;5046160;28;20056;-64
2021/05/07 06:19:24;;;;;;;5.13;2.20;;;15.90;57.60;;;;;;5065688;28;20601;-65
2021/05/07 06:21:50;;;;;;;5.53;2.10;;;15.90;57.70;;;;;;5068481;28;20036;-63
2021/05/07 06:24:16;;;;;;;4.53;2.17;;;15.90;57.80;;;;;;5045160;28;20043;-62
2021/05/07 06:26:41;;;;;;;4.90;2.20;;;16.00;57.70;;;;;;5053823;28;20392;-63
2021/05/07 06:29:07;;;;;;;4.20;2.10;;;16.00;57.40;;;;;;5049219;28;20040;-64
2021/05/07 06:31:32;;;;;;;5.00;2.10;;;16.00;57.70;;;;;;5062023;28;20020;-64
2021/05/07 06:33:58;;;;;;;6.60;2.10;;;16.00;57.70;;;;;;5058143;28;20436;-70
2021/05/07 06:36:23;;;;;;;4.75;1.80;;;15.90;57.50;;;;;;5040356;28;20028;-64
2021/05/07 06:38:49;;;;;;;8.30;2.00;;;15.90;57.70;;;;;;5062299;28;20159;-63
2021/05/07 06:41:15;;;;;;;8.07;1.88;;;15.90;57.60;;;;;;5063318;28;20036;-64
2021/05/07 06:43:40;;;;;;;7.95;2.10;;;15.90;57.40;;;;;;5066934;28;20027;-62
2021/05/07 06:46:06;;;;;;;12.23;2.42;;;16.10;57.20;;;;;;5067315;28;20094;-63
2021/05/07 06:48:32;;;;;;;9.50;2.35;;;16.20;56.70;;;;;;5068079;28;20031;-63
2021/05/07 06:50:57;;;;;;;9.85;2.10;;;16.20;56.50;;;;;;5067926;28;20032;-62
2021/05/07 06:53:23;;;;;;;8.85;2.10;;;16.10;57.00;;;;;;5067226;28;20034;-62
2021/05/07 06:55:48;;;;;;;6.43;1.80;;;16.10;56.80;;;;;;5049190;28;20116;-63
2021/05/07 06:58:14;;;;;;;6.32;1.92;;;16.00;56.80;;;;;;5047486;28;20024;-62
2021/05/07 07:00:39;;;;;;;5.93;1.77;;;16.30;56.40;;;;;;5029248;28;20056;-64
2021/05/07 07:03:05;;;;;;;5.07;1.92;;;16.40;55.90;;;;;;5028886;28;20527;-63
2021/05/07 07:05:30;;;;;;;5.80;1.70;;;16.40;55.90;;;;;;5052797;28;20070;-62
2021/05/07 07:07:56;;;;;;;5.68;1.77;;;16.30;56.00;;;;;;5040542;28;20111;-63
2021/05/07 07:10:22;;;;;;;8.35;2.03;;;16.20;56.30;;;;;;5061267;28;20667;-63
2021/05/07 07:12:48;;;;;;;5.43;1.85;;;16.20;56.60;;;;;;5043080;28;20033;-65
2021/05/07 07:15:14;;;;;;;10.38;2.17;;;16.10;56.70;;;;;;5046619;28;20116;-62
2021/05/07 07:17:40;;;;;;;4.88;1.85;;;16.10;56.90;;;;;;5046619;28;20025;-64
2021/05/07 07:20:06;;;;;;;5.45;1.90;;;16.10;56.70;;;;;;5050041;28;20124;-63
2021/05/07 07:22:31;;;;;;;4.90;1.95;;;16.20;56.70;;;;;;5060429;28;20024;-63
2021/05/07 07:24:57;;;;;;;3.88;1.90;;;16.30;56.50;;;;;;5039089;28;20036;-63
2021/05/07 07:27:22;;;;;;;5.47;1.65;;;16.30;56.10;;;;;;5054209;28;20736;-65
2021/05/07 07:29:48;;;;;;;5.97;1.50;;;16.30;56.30;;;;;;5052319;28;20017;-64
2021/05/07 07:32:14;;;;;;;5.82;1.73;;;16.70;55.80;;;;;;5056841;28;20112;-66
2021/05/07 07:34:40;;;;;;;4.95;1.60;;;17.00;54.60;;;;;;5064651;28;20024;-63
2021/05/07 07:37:06;;;;;;;3.47;1.50;;;17.40;54.00;;;;;;5047297;28;20025;-65
2021/05/07 07:39:31;;;;;;;3.03;1.50;;;17.50;52.80;;;;;;5064828;28;20027;-63
2021/05/07 07:41:57;;;;;;;3.42;1.65;;;17.30;53.10;;;;;;5061579;28;20039;-62
2021/05/07 07:44:22;;;;;;;7.60;1.77;;;17.10;53.40;;;;;;5063929;28;20032;-62
2021/05/07 07:46:48;;;;;;;3.97;1.45;;;17.00;53.80;;;;;;5063128;28;20024;-62
2021/05/07 07:49:14;;;;;;;5.93;1.67;;;16.80;54.10;;;;;;5047488;28;20024;-63
2021/05/07 07:51:39;;;;;;;8.23;1.60;;;16.70;54.70;;;;;;5066348;28;20012;-61
2021/05/07 07:54:11;;;;;;;6.15;1.55;;;16.70;54.70;;;;;;5064037;28;20028;-63
2021/05/07 07:56:37;;;;;;;4.13;1.50;;;16.80;54.60;;;;;;5058114;28;20086;-64
2021/05/07 07:59:02;;;;;;;3.67;1.40;;;17.00;54.30;;;;;;5045717;28;20037;-63
2021/05/07 08:01:28;;;;;;;5.95;1.75;;;17.20;53.60;;;;;;5038973;28;20024;-64
2021/05/07 08:03:55;;;;;;;5.18;1.40;;;17.00;53.60;;;;;;5065907;28;20024;-62
2021/05/07 08:06:21;;;;;;;3.55;1.50;;;16.90;54.00;;;;;;5047689;28;20036;-62
2021/05/07 08:08:47;;;;;;;3.78;1.40;;;16.80;54.30;;;;;;5048222;28;20027;-62
2021/05/07 08:11:12;;;;;;;4.68;1.40;;;16.70;54.60;;;;;;5047497;28;20036;-63
2021/05/07 08:13:38;;;;;;;4.80;1.42;;;16.60;54.60;;;;;;5066062;28;20495;-65
2021/05/07 08:16:04;;;;;;;3.95;1.30;;;16.60;54.90;;;;;;5065087;28;20039;-62
2021/05/07 08:18:29;;;;;;;4.47;1.50;;;16.70;54.50;;;;;;5061252;28;20028;-63
2021/05/07 08:20:55;;;;;;;3.58;1.40;;;16.70;54.80;;;;;;5065881;28;20125;-64
2021/05/07 08:23:20;;;;;;;2.88;1.42;;;16.60;54.80;;;;;;5065865;28;20040;-64
2021/05/07 08:25:46;;;;;;;10.65;1.88;;;16.60;55.10;;;;;;5065964;28;20518;-64
2021/05/07 08:28:12;;;;;;;10.13;1.98;;;16.50;54.80;;;;;;5047673;28;20115;-63
2021/05/07 08:30:37;;;;;;;9.40;1.75;;;16.60;54.90;;;;;;5047664;28;20787;-64
2021/05/07 08:33:03;;;;;;;11.82;2.22;;;16.50;54.90;;;;;;5065534;28;20583;-63
2021/05/07 08:35:30;;;;;;;6.20;1.65;;;16.60;55.20;;;;;;5047402;28;20032;-64
2021/05/07 08:37:56;;;;;;;12.48;2.45;;;16.60;55.10;;;;;;5056297;28;20020;-62
2021/05/07 08:40:21;;;;;;;13.00;2.60;;;16.70;54.90;;;;;;5064903;28;20455;-62
2021/05/07 08:42:47;;;;;;;8.13;2.05;;;16.90;55.00;;;;;;5064304;28;20036;-62
2021/05/07 08:45:13;;;;;;;6.80;1.95;;;17.10;54.30;;;;;;5065017;28;20036;-63
2021/05/07 08:47:40;;;;;;;8.80;2.17;;;17.30;53.80;;;;;;5065614;28;20024;-62
2021/05/07 08:50:07;;;;;;;10.40;1.60;;;17.50;52.80;;;;;;5064984;28;20024;-63
2021/05/07 08:52:34;;;;;;;6.68;1.98;;;17.60;53.00;;;;;;5065370;28;20024;-63
2021/05/07 08:55:01;;;;;;;4.53;1.80;;;17.60;52.80;;;;;;5047124;28;20059;-64
2021/05/07 08:57:27;;;;;;;3.72;1.75;;;17.70;52.30;;;;;;5028523;28;20029;-62
2021/05/07 08:59:52;;;;;;;7.28;1.90;;;17.80;52.20;;;;;;5045200;28;20035;-63
2021/05/07 09:02:25;;;;;;;5.53;1.70;;;17.90;52.10;;;;;;5027396;28;20526;-64
2021/05/07 09:04:52;;;;;;;2.65;1.40;;;18.00;51.80;;;;;;5056966;28;20162;-63
2021/05/07 09:07:18;;;;;;;4.85;1.73;;;18.20;51.30;;;;;;5061424;28;20025;-63
2021/05/07 09:09:54;;;;;;;8.27;1.67;;;18.40;51.10;;;;;;5044733;28;20032;-63
2021/05/07 09:12:31;;;;;;;4.57;1.50;;;18.80;50.90;;;;;;5027227;28;20519;-64
2021/05/07 09:14:59;;;;;;;4.40;1.40;;;19.20;49.90;;;;;;5045143;28;20032;-65
2021/05/07 09:17:27;;;;;;;3.75;1.42;;;19.40;48.90;;;;;;5046286;28;20029;-63
2021/05/07 09:20:12;;;;;;;6.22;1.52;;;19.60;48.40;;;;;;5045381;28;20417;-63
2021/05/07 09:22:40;;;;;;;5.25;1.50;;;19.80;48.60;;;;;;5048775;28;20025;-63
2021/05/07 09:25:11;;;;;;;2.97;1.23;;;19.90;47.80;;;;;;5040340;28;20036;-64
2021/05/07 09:27:38;;;;;;;;;;;19.80;47.90;;;;;;5061350;28;20020;-64
2021/05/07 09:30:09;;;;;;;5.95;1.67;;;19.70;48.50;;;;;;5050513;28;19916;-64
2021/05/07 09:32:35;;;;;;;4.45;1.60;;;19.70;48.70;;;;;;5056621;28;20368;-65
2021/05/07 09:35:09;;;;;;;4.78;1.50;;;19.80;48.90;;;;;;5055556;28;20108;-64
2021/05/07 09:37:35;;;;;;;6.47;1.60;;;19.80;49.00;;;;;;5039343;28;20764;-63
2021/05/07 09:40:19;;;;;;;7.15;1.60;;;19.80;48.80;;;;;;5039880;28;20059;-63
2021/05/07 09:42:45;;;;;;;6.25;1.92;;;20.00;48.80;;;;;;5058381;28;20931;-63
2021/05/07 09:45:25;;;;;;;5.32;1.70;;;19.90;48.80;;;;;;5043603;28;20179;-62
2021/05/07 09:47:52;;;;;;;3.47;1.20;;;19.80;49.10;;;;;;5053076;28;20027;-63
2021/05/07 09:50:20;;;;;;;4.57;1.38;;;20.00;49.20;;;;;;5054104;28;20510;-62
2021/05/07 09:52:50;;;;;;;3.92;1.40;;;20.50;48.30;;;;;;5045010;28;20106;-60
2021/05/07 09:55:16;;;;;;;3.35;1.20;;;20.60;47.60;;;;;;5049142;28;20492;-60
2021/05/07 09:57:43;;;;;;;3.05;1.10;;;20.50;47.70;;;;;;5056843;28;20028;-62
2021/05/07 10:00:09;;;;;;;4.05;1.15;;;20.50;48.00;;;;;;5056848;28;20434;-61
2021/05/07 10:02:35;;;;;;;3.35;1.17;;;20.40;48.20;;;;;;5059584;28;20035;-60
2021/05/07 10:05:01;;;;;;;2.42;1.13;;;20.30;48.50;;;;;;5055794;28;20085;-62
2021/05/07 10:07:27;;;;;;;1.70;1.00;;;20.20;48.50;;;;;;5059008;28;20024;-63
2021/05/07 10:10:05;;;;;;;4.38;1.02;;;20.20;48.80;;;;;;5048484;28;20166;-61
2021/05/07 10:12:32;;;;;;;6.30;1.83;;;20.60;48.00;;;;;;5045717;28;20573;-61
2021/05/07 10:14:58;;;;;;;3.63;1.27;;;20.90;47.60;;;;;;5048228;28;20413;-60
2021/05/07 10:17:24;;;;;;;4.40;1.30;;;21.10;46.80;;;;;;5047456;28;20036;-62
2021/05/07 10:19:50;;;;;;;5.00;1.23;;;21.20;46.40;;;;;;5048419;28;20039;-60
2021/05/07 10:22:16;;;;;;;2.47;1.08;;;21.30;46.20;;;;;;5044845;28;20029;-62
2021/05/07 10:24:42;;;;;;;3.97;1.30;;;21.10;46.40;;;;;;5060771;28;20479;-60
2021/05/07 10:27:16;;;;;;;3.45;1.17;;;21.20;46.40;;;;;;5068290;28;20039;-63
2021/05/07 10:29:55;;;;;;;2.80;1.20;;;21.10;46.30;;;;;;5067787;28;20027;-65
2021/05/07 10:32:35;;;;;;;3.72;1.40;;;20.80;46.70;;;;;;5038144;28;20028;-61
2021/05/07 10:35:01;;;;;;;3.35;1.38;;;20.60;47.40;;;;;;5061504;28;20511;-61
2021/05/07 10:37:45;;;;;;;3.35;1.25;;;20.50;47.70;;;;;;5048143;28;20048;-63
2021/05/07 10:40:24;;;;;;;17.60;2.30;;;20.30;48.10;;;;;;5032751;28;20032;-63
2021/05/07 10:42:59;;;;;;;6.53;1.40;;;20.30;48.30;;;;;;5062714;28;20451;-64
2021/05/07 10:45:46;;;;;;;7.25;1.80;;;20.70;48.10;;;;;;5042419;28;20032;-66
2021/05/07 10:48:25;;;;;;;9.52;2.75;;;20.90;47.10;;;;;;5092562;22;20016;-67
2021/05/07 10:50:57;;;;;;;13.32;4.90;;;20.60;47.40;;;;;;5075810;28;20104;-67
2021/05/07 10:53:24;;;;;;;10.43;3.75;;;20.80;47.80;;;;;;5094635;28;20043;-66
2021/05/07 10:55:50;;;;;;;7.90;3.10;;;20.60;47.60;;;;;;5094349;28;20051;-66
2021/05/07 10:58:16;;;;;;;9.55;3.03;;;20.40;48.00;;;;;;5094432;28;20489;-67
2021/05/07 11:00:41;;;;;;;10.15;2.70;;;20.20;48.50;;;;;;5094419;28;20020;-66
2021/05/07 11:03:19;;;;;;;10.10;3.10;;;20.10;48.90;;;;;;5075991;28;20059;-66
2021/05/07 11:05:47;;;;;;;9.20;2.78;;;20.10;49.20;;;;;;5093329;28;20043;-66
2021/05/07 11:08:13;;;;;;;9.65;2.80;;;20.40;48.90;;;;;;5094223;28;20440;-67
2021/05/07 11:10:40;;;;;;;8.05;2.60;;;20.80;47.90;;;;;;5076094;28;20099;-67
2021/05/07 11:16:36;;;;;;;8.02;2.30;;;21.00;47.20;;;;;;5093102;28;20597;-66
2021/05/07 11:19:02;;;;;;;6.22;2.20;;;20.60;47.50;;;;;;5093993;28;20031;-66
2021/05/07 11:21:28;;;;;;;6.25;2.22;;;20.30;48.30;;;;;;5094350;28;20020;-66
2021/05/07 11:23:53;;;;;;;10.07;2.05;;;20.20;48.70;;;;;;5075718;28;20028;-66
2021/05/07 11:26:19;;;;;;;7.93;2.50;;;20.20;49.00;;;;;;5093700;28;20111;-67
2021/05/07 11:28:44;;;;;;;7.45;2.20;;;20.20;49.00;;;;;;5094262;28;20028;-67
2021/05/07 11:31:10;;;;;;;6.97;1.92;;;20.30;48.90;;;;;;5093797;28;20017;-67
2021/05/07 11:33:36;;;;;;;7.47;2.10;;;20.20;48.80;;;;;;5075614;28;20020;-66
2021/05/07 11:36:10;;;;;;;7.75;2.25;;;20.30;48.50;;;;;;5093540;28;20384;-67
2021/05/07 11:38:37;;;;;;;5.97;1.95;;;20.50;48.20;;;;;;5075527;28;20032;-67
2021/05/07 11:41:03;;;;;;;6.20;1.95;;;20.50;48.00;;;;;;5093740;28;20530;-67
2021/05/07 11:43:30;;;;;;;5.38;1.80;;;20.50;48.00;;;;;;5075488;28;20472;-66
2021/05/07 11:46:06;;;;;;;5.20;1.80;;;20.50;48.00;;;;;;5074915;28;20056;-67
2021/05/07 11:48:33;;;;;;;7.00;2.35;;;20.50;48.10;;;;;;5075427;28;20020;-67
2021/05/07 11:51:06;;;;;;;10.45;4.95;;;20.40;48.20;;;;;;5075368;28;20020;-66
2021/05/07 11:53:36;;;;;;;16.27;9.45;;;20.20;48.40;;;;;;5093552;28;20099;-66
2021/05/07 11:56:03;;;;;;;19.85;12.52;;;20.10;48.80;;;;;;5093062;28;20028;-66
2021/05/07 11:58:36;;;;;;;21.38;13.00;;;20.00;48.90;;;;;;5093005;28;20032;-65
2021/05/07 12:01:06;;;;;;;19.98;12.88;;;19.80;49.10;;;;;;5093212;28;20036;-66
2021/05/07 12:03:39;;;;;;;18.15;11.07;;;19.70;49.40;;;;;;5074851;28;20035;-66
2021/05/07 12:06:19;;;;;;;18.52;11.40;;;19.60;49.80;;;;;;5092878;28;20031;-68
2021/05/07 12:08:47;;;;;;;18.77;10.65;;;19.50;50.00;;;;;;5074916;28;20452;-67
2021/05/07 12:11:13;;;;;;;15.68;9.23;;;19.40;50.10;;;;;;5074980;28;20530;-66
2021/05/07 12:13:40;;;;;;;17.70;9.90;;;19.40;50.20;;;;;;5074829;28;20028;-67
2021/05/07 12:16:06;;;;;;;15.63;9.07;;;19.40;50.20;;;;;;5074053;28;20053;-67
2021/05/07 12:18:33;;;;;;;16.52;9.23;;;19.50;50.10;;;;;;5074345;28;20123;-66
2021/05/07 12:20:59;;;;;;;16.50;9.45;;;19.50;50.10;;;;;;5092857;28;20021;-67
2021/05/07 12:23:38;;;;;;;15.65;8.70;;;19.50;50.10;;;;;;5093013;28;20024;-67
2021/05/07 12:26:04;;;;;;;13.07;7.55;;;19.50;50.20;;;;;;5074225;28;20055;-67
2021/05/07 12:28:29;;;;;;;14.38;8.13;;;19.50;50.00;;;;;;5092683;28;20489;-67
2021/05/07 12:30:57;;;;;;;13.15;7.57;;;19.50;50.00;;;;;;5074499;28;20494;-67
2021/05/07 12:33:25;;;;;;;12.85;7.45;;;19.50;50.10;;;;;;5092690;28;20043;-67
2021/05/07 12:35:55;;;;;;;13.20;7.15;;;19.50;50.00;;;;;;5092293;28;20076;-67
2021/05/07 12:38:25;;;;;;;12.55;7.18;;;19.40;50.10;;;;;;5092753;28;20107;-67
2021/05/07 12:40:51;;;;;;;11.60;6.80;;;19.30;50.20;;;;;;5092476;28;20023;-67
2021/05/07 12:43:17;;;;;;;12.98;7.47;;;19.30;50.30;;;;;;5074289;28;20055;-67
2021/05/07 12:45:50;;;;;;;11.82;7.10;;;19.30;50.50;;;;;;5091933;28;20117;-67
2021/05/07 12:48:16;;;;;;;12.80;7.00;;;19.20;50.50;;;;;;5092219;28;20031;-67
2021/05/07 12:50:45;;;;;;;11.25;6.50;;;19.10;50.60;;;;;;5092271;28;20046;-66